sensor_id;sensor_type;location;lat;lon;timestamp;pressure;altitude;pressure_sealevel;temperature;humidity
12172;BME280;6149;52.418;13.668;2024-01-11T00:01:08;102743.53;;;-10.40;100.00
12172;BME280;6149;52.418;13.668;2024-01-11T00:03:35;102731.53;;;-10.41;100.00
12172;BME280;6149;52.418;13.668;2024-01-11T00:06:01;102714.41;;;-10.42;100.00
12172;BME280;6149;52.418;13.668;2024-01-11T00:08:29;102716.88;;;-10.43;100.00
12172;BME280;6149;52.418;13.668;2024-01-11T00:10:56;102717.75;;;-10.43;100.00
12172;BME280;6149;52.418;13.668;2024-01-11T00:13:22;102725.31;;;-10.44;100.00
12172;BME280;6149;52.418;13.668;2024-01-11T00:15:49;102726.22;;;-10.44;100.00
12172;BME280;6149;52.418;13.668;2024-01-11T00:18:16;102721.78;;;-10.47;100.00
12172;BME280;6149;52.418;13.668;2024-01-11T00:20:43;102734.47;;;-10.48;100.00
12172;BME280;6149;52.418;13.668;2024-01-11T00:23:10;102728.34;;;-10.50;100.00
12172;BME280;6149;52.418;13.668;2024-01-11T00:25:36;102716.47;;;-10.50;100.00
12172;BME280;6149;52.418;13.668;2024-01-11T00:28:03;102717.25;;;-10.51;100.00
12172;BME280;6149;52.418;13.668;2024-01-11T00:30:30;102705.25;;;-10.52;100.00
12172;BME280;6149;52.418;13.668;2024-01-11T00:32:57;102713.69;;;-10.53;100.00
12172;BME280;6149;52.418;13.668;2024-01-11T00:35:25;102705.16;;;-10.53;100.00
12172;BME280;6149;52.418;13.668;2024-01-11T00:37:52;102700.13;;;-10.52;100.00
12172;BME280;6149;52.418;13.668;2024-01-11T00:40:18;102690.91;;;-10.50;100.00
12172;BME280;6149;52.418;13.668;2024-01-11T00:42:45;102696.13;;;-10.48;100.00
12172;BME280;6149;52.418;13.668;2024-01-11T00:45:12;102690.13;;;-10.49;100.00
12172;BME280;6149;52.418;13.668;2024-01-11T00:47:39;102691.78;;;-10.49;100.00
12172;BME280;6149;52.418;13.668;2024-01-11T00:50:06;102685.00;;;-10.49;100.00
12172;BME280;6149;52.418;13.668;2024-01-11T00:52:36;102671.44;;;-10.48;100.00
12172;BME280;6149;52.418;13.668;2024-01-11T00:55:04;102675.66;;;-10.48;100.00
12172;BME280;6149;52.418;13.668;2024-01-11T00:57:31;102668.78;;;-10.49;100.00
12172;BME280;6149;52.418;13.668;2024-01-11T00:59:58;102659.44;;;-10.49;100.00
12172;BME280;6149;52.418;13.668;2024-01-11T01:02:25;102659.44;;;-10.49;100.00
12172;BME280;6149;52.418;13.668;2024-01-11T01:04:51;102661.22;;;-10.48;100.00
12172;BME280;6149;52.418;13.668;2024-01-11T01:07:18;102669.66;;;-10.49;100.00
12172;BME280;6149;52.418;13.668;2024-01-11T01:09:46;102659.44;;;-10.49;100.00
12172;BME280;6149;52.418;13.668;2024-01-11T01:12:13;102674.69;;;-10.50;100.00
12172;BME280;6149;52.418;13.668;2024-01-11T01:14:40;102663.78;;;-10.48;100.00
12172;BME280;6149;52.418;13.668;2024-01-11T01:17:06;102639.00;;;-10.49;100.00
12172;BME280;6149;52.418;13.668;2024-01-11T01:19:33;102626.31;;;-10.47;100.00
12172;BME280;6149;52.418;13.668;2024-01-11T01:21:59;102644.31;;;-10.45;100.00
12172;BME280;6149;52.418;13.668;2024-01-11T01:24:26;102629.06;;;-10.44;100.00
12172;BME280;6149;52.418;13.668;2024-01-11T01:26:54;102633.59;;;-10.40;100.00
12172;BME280;6149;52.418;13.668;2024-01-11T01:29:20;102640.44;;;-10.39;100.00
12172;BME280;6149;52.418;13.668;2024-01-11T01:31:47;102638.88;;;-10.37;100.00
12172;BME280;6149;52.418;13.668;2024-01-11T01:34:13;102647.44;;;-10.36;100.00
12172;BME280;6149;52.418;13.668;2024-01-11T01:36:49;102646.66;;;-10.35;100.00
12172;BME280;6149;52.418;13.668;2024-01-11T01:39:16;102657.75;;;-10.35;100.00
12172;BME280;6149;52.418;13.668;2024-01-11T01:41:43;102655.19;;;-10.35;100.00
12172;BME280;6149;52.418;13.668;2024-01-11T01:44:11;102666.22;;;-10.36;100.00
12172;BME280;6149;52.418;13.668;2024-01-11T01:46:37;102660.31;;;-10.35;100.00
12172;BME280;6149;52.418;13.668;2024-01-11T01:49:04;102633.88;;;-10.35;100.00
12172;BME280;6149;52.418;13.668;2024-01-11T01:51:32;102643.41;;;-10.33;100.00
12172;BME280;6149;52.418;13.668;2024-01-11T01:54:00;102640.06;;;-10.32;100.00
12172;BME280;6149;52.418;13.668;2024-01-11T01:56:28;102644.28;;;-10.32;100.00
12172;BME280;6149;52.418;13.668;2024-01-11T01:58:55;102643.31;;;-10.34;100.00
12172;BME280;6149;52.418;13.668;2024-01-11T02:01:24;102642.53;;;-10.33;100.00
12172;BME280;6149;52.418;13.668;2024-01-11T02:03:54;102658.66;;;-10.34;100.00
12172;BME280;6149;52.418;13.668;2024-01-11T02:06:23;102666.41;;;-10.33;100.00
12172;BME280;6149;52.418;13.668;2024-01-11T02:08:52;102666.41;;;-10.33;100.00
12172;BME280;6149;52.418;13.668;2024-01-11T02:11:20;102668.97;;;-10.33;100.00
12172;BME280;6149;52.418;13.668;2024-01-11T02:13:49;102672.41;;;-10.32;100.00
12172;BME280;6149;52.418;13.668;2024-01-11T02:16:16;102685.19;;;-10.32;100.00
12172;BME280;6149;52.418;13.668;2024-01-11T02:18:44;102674.88;;;-10.34;100.00
12172;BME280;6149;52.418;13.668;2024-01-11T02:21:11;102679.28;;;-10.31;100.00
12172;BME280;6149;52.418;13.668;2024-01-11T02:23:43;102688.94;;;-10.27;100.00
12172;BME280;6149;52.418;13.668;2024-01-11T02:26:13;102681.47;;;-10.24;100.00
12172;BME280;6149;52.418;13.668;2024-01-11T02:28:43;102685.88;;;-10.22;100.00
12172;BME280;6149;52.418;13.668;2024-01-11T02:31:11;102686.16;;;-10.17;100.00
12172;BME280;6149;52.418;13.668;2024-01-11T02:33:38;102680.44;;;-10.13;100.00
12172;BME280;6149;52.418;13.668;2024-01-11T02:36:05;102695.00;;;-10.12;100.00
12172;BME280;6149;52.418;13.668;2024-01-11T02:38:33;102682.81;;;-10.03;100.00
12172;BME280;6149;52.418;13.668;2024-01-11T02:41:01;102685.22;;;-9.78;100.00
12172;BME280;6149;52.418;13.668;2024-01-11T02:43:28;102685.63;;;-9.72;100.00
12172;BME280;6149;52.418;13.668;2024-01-11T02:45:55;102688.03;;;-9.60;100.00
12172;BME280;6149;52.418;13.668;2024-01-11T02:48:27;102667.53;;;-9.47;100.00
12172;BME280;6149;52.418;13.668;2024-01-11T02:50:54;102653.78;;;-9.34;100.00
12172;BME280;6149;52.418;13.668;2024-01-11T02:53:21;102645.50;;;-9.30;100.00
12172;BME280;6149;52.418;13.668;2024-01-11T02:55:47;102632.72;;;-9.16;100.00
12172;BME280;6149;52.418;13.668;2024-01-11T02:58:14;102625.84;;;-9.02;100.00
12172;BME280;6149;52.418;13.668;2024-01-11T03:00:42;102616.94;;;-8.94;100.00
12172;BME280;6149;52.418;13.668;2024-01-11T03:03:08;102625.75;;;-8.89;100.00
12172;BME280;6149;52.418;13.668;2024-01-11T03:05:35;102635.47;;;-8.83;100.00
12172;BME280;6149;52.418;13.668;2024-01-11T03:08:02;102639.19;;;-8.78;100.00
12172;BME280;6149;52.418;13.668;2024-01-11T03:10:29;102639.09;;;-8.65;100.00
12172;BME280;6149;52.418;13.668;2024-01-11T03:12:57;102635.31;;;-8.57;100.00
12172;BME280;6149;52.418;13.668;2024-01-11T03:15:24;102644.47;;;-8.46;100.00
12172;BME280;6149;52.418;13.668;2024-01-11T03:17:51;102642.50;;;-8.35;100.00
12172;BME280;6149;52.418;13.668;2024-01-11T03:20:18;102643.25;;;-8.21;100.00
12172;BME280;6149;52.418;13.668;2024-01-11T03:22:49;102640.47;;;-8.10;100.00
12172;BME280;6149;52.418;13.668;2024-01-11T03:25:16;102635.59;;;-8.05;100.00
12172;BME280;6149;52.418;13.668;2024-01-11T03:27:43;102634.78;;;-8.04;100.00
12172;BME280;6149;52.418;13.668;2024-01-11T03:30:10;102629.19;;;-7.97;100.00
12172;BME280;6149;52.418;13.668;2024-01-11T03:32:37;102634.41;;;-7.95;100.00
12172;BME280;6149;52.418;13.668;2024-01-11T03:35:07;102637.31;;;-7.89;100.00
12172;BME280;6149;52.418;13.668;2024-01-11T03:37:33;102625.19;;;-7.92;100.00
12172;BME280;6149;52.418;13.668;2024-01-11T03:40:00;102630.59;;;-7.87;100.00
12172;BME280;6149;52.418;13.668;2024-01-11T03:42:27;102622.81;;;-7.89;100.00
12172;BME280;6149;52.418;13.668;2024-01-11T03:44:53;102610.84;;;-7.88;100.00
12172;BME280;6149;52.418;13.668;2024-01-11T03:47:20;102617.91;;;-7.84;100.00
12172;BME280;6149;52.418;13.668;2024-01-11T03:49:47;102608.75;;;-7.79;100.00
12172;BME280;6149;52.418;13.668;2024-01-11T03:52:15;102604.50;;;-7.79;100.00
12172;BME280;6149;52.418;13.668;2024-01-11T03:54:41;102590.22;;;-7.73;100.00
12172;BME280;6149;52.418;13.668;2024-01-11T03:57:08;102582.53;;;-7.73;100.00
12172;BME280;6149;52.418;13.668;2024-01-11T03:59:34;102590.22;;;-7.73;100.00
12172;BME280;6149;52.418;13.668;2024-01-11T04:02:01;102585.72;;;-7.78;100.00
12172;BME280;6149;52.418;13.668;2024-01-11T04:04:27;102596.81;;;-7.79;100.00
12172;BME280;6149;52.418;13.668;2024-01-11T04:06:54;102596.66;;;-7.82;100.00
12172;BME280;6149;52.418;13.668;2024-01-11T04:09:22;102589.06;;;-7.80;100.00
12172;BME280;6149;52.418;13.668;2024-01-11T04:11:48;102592.63;;;-7.77;100.00
12172;BME280;6149;52.418;13.668;2024-01-11T04:14:15;102578.53;;;-7.68;100.00
12172;BME280;6149;52.418;13.668;2024-01-11T04:16:42;102574.59;;;-7.62;100.00
12172;BME280;6149;52.418;13.668;2024-01-11T04:19:09;102579.72;;;-7.62;100.00
12172;BME280;6149;52.418;13.668;2024-01-11T04:21:36;102577.97;;;-7.63;100.00
12172;BME280;6149;52.418;13.668;2024-01-11T04:24:04;102572.09;;;-7.60;100.00
12172;BME280;6149;52.418;13.668;2024-01-11T04:26:33;102577.25;;;-7.60;100.00
12172;BME280;6149;52.418;13.668;2024-01-11T04:28:59;102597.06;;;-7.58;100.00
12172;BME280;6149;52.418;13.668;2024-01-11T04:31:26;102603.97;;;-7.57;100.00
12172;BME280;6149;52.418;13.668;2024-01-11T04:33:53;102604.22;;;-7.52;100.00
12172;BME280;6149;52.418;13.668;2024-01-11T04:36:19;102598.28;;;-7.51;100.00
12172;BME280;6149;52.418;13.668;2024-01-11T04:38:46;102589.22;;;-7.45;100.00
12172;BME280;6149;52.418;13.668;2024-01-11T04:41:14;102596.91;;;-7.45;100.00
12172;BME280;6149;52.418;13.668;2024-01-11T04:43:43;102601.69;;;-7.34;100.00
12172;BME280;6149;52.418;13.668;2024-01-11T04:46:14;102611.25;;;-7.32;100.00
12172;BME280;6149;52.418;13.668;2024-01-11T04:48:42;102598.41;;;-7.32;100.00
12172;BME280;6149;52.418;13.668;2024-01-11T04:51:09;102596.00;;;-7.29;100.00
12172;BME280;6149;52.418;13.668;2024-01-11T04:53:37;102602.91;;;-7.28;100.00
12172;BME280;6149;52.418;13.668;2024-01-11T04:56:06;102588.53;;;-7.24;100.00
12172;BME280;6149;52.418;13.668;2024-01-11T04:58:33;102564.75;;;-7.20;100.00
12172;BME280;6149;52.418;13.668;2024-01-11T05:01:01;102556.56;;;-7.13;100.00
12172;BME280;6149;52.418;13.668;2024-01-11T05:03:27;102556.06;;;-7.06;100.00
12172;BME280;6149;52.418;13.668;2024-01-11T05:05:54;102555.19;;;-7.06;100.00
12172;BME280;6149;52.418;13.668;2024-01-11T05:08:21;102543.22;;;-7.06;100.00
12172;BME280;6149;52.418;13.668;2024-01-11T05:10:47;102554.41;;;-7.04;100.00
12172;BME280;6149;52.418;13.668;2024-01-11T05:13:14;102534.22;;;-6.96;100.00
12172;BME280;6149;52.418;13.668;2024-01-11T05:15:41;102527.28;;;-6.81;100.00
12172;BME280;6149;52.418;13.668;2024-01-11T05:18:08;102558.22;;;-6.80;100.00
12172;BME280;6149;52.418;13.668;2024-01-11T05:20:35;102577.00;;;-6.81;100.00
12172;BME280;6149;52.418;13.668;2024-01-11T05:23:02;102560.19;;;-6.74;100.00
12172;BME280;6149;52.418;13.668;2024-01-11T05:25:29;102559.31;;;-6.75;100.00
12172;BME280;6149;52.418;13.668;2024-01-11T05:27:58;102537.13;;;-6.72;100.00
12172;BME280;6149;52.418;13.668;2024-01-11T05:30:25;102558.59;;;-6.72;100.00
12172;BME280;6149;52.418;13.668;2024-01-11T05:32:51;102565.03;;;-6.45;100.00
12172;BME280;6149;52.418;13.668;2024-01-11T05:35:19;102561.13;;;-6.54;100.00
12172;BME280;6149;52.418;13.668;2024-01-11T05:37:47;102545.72;;;-6.54;100.00
12172;BME280;6149;52.418;13.668;2024-01-11T05:40:13;102555.34;;;-6.50;100.00
12172;BME280;6149;52.418;13.668;2024-01-11T05:42:40;102544.16;;;-6.51;100.00
12172;BME280;6149;52.418;13.668;2024-01-11T05:45:07;102528.66;;;-6.52;100.00
12172;BME280;6149;52.418;13.668;2024-01-11T05:47:34;102528.88;;;-6.48;100.00
12172;BME280;6149;52.418;13.668;2024-01-11T05:50:01;102539.25;;;-6.46;100.00
12172;BME280;6149;52.418;13.668;2024-01-11T05:52:28;102523.63;;;-6.31;100.00
12172;BME280;6149;52.418;13.668;2024-01-11T05:54:55;102521.59;;;-6.38;100.00
12172;BME280;6149;52.418;13.668;2024-01-11T05:57:21;102533.56;;;-6.39;100.00
12172;BME280;6149;52.418;13.668;2024-01-11T05:59:48;102535.56;;;-6.33;100.00
12172;BME280;6149;52.418;13.668;2024-01-11T06:02:14;102543.94;;;-6.37;100.00
12172;BME280;6149;52.418;13.668;2024-01-11T06:04:41;102557.63;;;-6.38;100.00
12172;BME280;6149;52.418;13.668;2024-01-11T06:07:08;102558.44;;;-6.39;100.00
12172;BME280;6149;52.418;13.668;2024-01-11T06:09:36;102563.56;;;-6.39;100.00
12172;BME280;6149;52.418;13.668;2024-01-11T06:12:03;102564.53;;;-6.37;100.00
12172;BME280;6149;52.418;13.668;2024-01-11T06:14:29;102552.53;;;-6.37;100.00
12172;BME280;6149;52.418;13.668;2024-01-11T06:16:56;102540.06;;;-6.28;100.00
12172;BME280;6149;52.418;13.668;2024-01-11T06:19:23;102529.94;;;-6.25;100.00
12172;BME280;6149;52.418;13.668;2024-01-11T06:21:49;102524.78;;;-6.25;100.00
12172;BME280;6149;52.418;13.668;2024-01-11T06:24:16;102536.91;;;-6.22;100.00
12172;BME280;6149;52.418;13.668;2024-01-11T06:26:44;102533.44;;;-6.23;100.00
12172;BME280;6149;52.418;13.668;2024-01-11T06:29:10;102531.84;;;-6.21;100.00
12172;BME280;6149;52.418;13.668;2024-01-11T06:31:37;102539.03;;;-6.14;100.00
12172;BME280;6149;52.418;13.668;2024-01-11T06:34:03;102552.72;;;-6.15;100.00
12172;BME280;6149;52.418;13.668;2024-01-11T06:36:30;102541.59;;;-6.14;100.00
12172;BME280;6149;52.418;13.668;2024-01-11T06:38:56;102535.72;;;-6.11;100.00
12172;BME280;6149;52.418;13.668;2024-01-11T06:41:23;102527.25;;;-6.09;100.00
12172;BME280;6149;52.418;13.668;2024-01-11T06:43:51;102516.44;;;-6.01;100.00
12172;BME280;6149;52.418;13.668;2024-01-11T06:46:19;102512.72;;;-5.87;100.00
12172;BME280;6149;52.418;13.668;2024-01-11T06:48:47;102512.91;;;-5.83;100.00
12172;BME280;6149;52.418;13.668;2024-01-11T06:51:14;102496.72;;;-5.80;100.00
12172;BME280;6149;52.418;13.668;2024-01-11T06:53:41;102506.22;;;-5.79;100.00
12172;BME280;6149;52.418;13.668;2024-01-11T06:56:13;102506.41;;;-5.75;100.00
12172;BME280;6149;52.418;13.668;2024-01-11T06:58:41;102503.97;;;-5.72;100.00
12172;BME280;6149;52.418;13.668;2024-01-11T07:01:08;102504.94;;;-5.69;100.00
12172;BME280;6149;52.418;13.668;2024-01-11T07:03:35;102496.66;;;-5.62;100.00
12172;BME280;6149;52.418;13.668;2024-01-11T07:06:02;102486.56;;;-5.58;100.00
12172;BME280;6149;52.418;13.668;2024-01-11T07:08:29;102487.66;;;-5.51;100.00
12172;BME280;6149;52.418;13.668;2024-01-11T07:10:55;102490.09;;;-5.54;100.00
12172;BME280;6149;52.418;13.668;2024-01-11T07:13:22;102489.44;;;-5.50;100.00
12172;BME280;6149;52.418;13.668;2024-01-11T07:15:49;102495.59;;;-5.47;100.00
12172;BME280;6149;52.418;13.668;2024-01-11T07:18:18;102516.28;;;-5.45;100.00
12172;BME280;6149;52.418;13.668;2024-01-11T07:20:45;102498.50;;;-5.39;100.00
12172;BME280;6149;52.418;13.668;2024-01-11T07:23:12;102507.84;;;-5.22;100.00
12172;BME280;6149;52.418;13.668;2024-01-11T07:25:39;102501.53;;;-5.28;100.00
12172;BME280;6149;52.418;13.668;2024-01-11T07:28:06;102498.41;;;-5.21;100.00
12172;BME280;6149;52.418;13.668;2024-01-11T07:30:32;102497.41;;;-5.25;100.00
12172;BME280;6149;52.418;13.668;2024-01-11T07:32:59;102497.41;;;-5.25;100.00
12172;BME280;6149;52.418;13.668;2024-01-11T07:35:31;102494.63;;;-5.29;100.00
12172;BME280;6149;52.418;13.668;2024-01-11T07:37:57;102511.09;;;-5.26;100.00
12172;BME280;6149;52.418;13.668;2024-01-11T07:40:24;102509.13;;;-5.31;100.00
12172;BME280;6149;52.418;13.668;2024-01-11T07:42:51;102504.94;;;-5.29;100.00
12172;BME280;6149;52.418;13.668;2024-01-11T07:45:17;102502.91;;;-5.16;100.00
12172;BME280;6149;52.418;13.668;2024-01-11T07:47:44;102501.03;;;-5.20;100.00
12172;BME280;6149;52.418;13.668;2024-01-11T07:50:10;102503.66;;;-5.18;100.00
12172;BME280;6149;52.418;13.668;2024-01-11T07:52:39;102519.44;;;-5.11;100.00
12172;BME280;6149;52.418;13.668;2024-01-11T07:55:07;102513.47;;;-5.10;100.00
12172;BME280;6149;52.418;13.668;2024-01-11T07:57:36;102504.28;;;-5.03;100.00
12172;BME280;6149;52.418;13.668;2024-01-11T08:00:03;102490.28;;;-4.89;100.00
12172;BME280;6149;52.418;13.668;2024-01-11T08:02:31;102498.13;;;-4.86;100.00
12172;BME280;6149;52.418;13.668;2024-01-11T08:04:58;102495.78;;;-4.80;100.00
12172;BME280;6149;52.418;13.668;2024-01-11T08:07:25;102494.81;;;-4.82;100.00
12172;BME280;6149;52.418;13.668;2024-01-11T08:09:53;102493.13;;;-4.81;100.00
12172;BME280;6149;52.418;13.668;2024-01-11T08:12:19;102493.31;;;-4.77;100.00
12172;BME280;6149;52.418;13.668;2024-01-11T08:14:46;102490.09;;;-4.71;100.00
12172;BME280;6149;52.418;13.668;2024-01-11T08:17:13;102492.94;;;-4.65;100.00
12172;BME280;6149;52.418;13.668;2024-01-11T08:19:41;102488.59;;;-4.66;100.00
12172;BME280;6149;52.418;13.668;2024-01-11T08:22:09;102490.47;;;-4.62;100.00
12172;BME280;6149;52.418;13.668;2024-01-11T08:24:36;102493.75;;;-4.66;100.00
12172;BME280;6149;52.418;13.668;2024-01-11T08:27:05;102478.44;;;-4.61;100.00
12172;BME280;6149;52.418;13.668;2024-01-11T08:29:32;102487.13;;;-4.59;100.00
12172;BME280;6149;52.418;13.668;2024-01-11T08:31:58;102487.25;;;-4.56;100.00
12172;BME280;6149;52.418;13.668;2024-01-11T08:34:26;102488.25;;;-4.53;100.00
12172;BME280;6149;52.418;13.668;2024-01-11T08:36:53;102493.91;;;-4.39;100.00
12172;BME280;6149;52.418;13.668;2024-01-11T08:39:19;102490.53;;;-4.38;100.00
12172;BME280;6149;52.418;13.668;2024-01-11T08:41:47;102497.50;;;-4.35;100.00
12172;BME280;6149;52.418;13.668;2024-01-11T08:44:15;102472.91;;;-4.26;100.00
12172;BME280;6149;52.418;13.668;2024-01-11T08:46:41;102470.63;;;-4.18;100.00
12172;BME280;6149;52.418;13.668;2024-01-11T08:49:09;102466.56;;;-4.12;100.00
12172;BME280;6149;52.418;13.668;2024-01-11T08:51:35;102469.97;;;-4.13;100.00
12172;BME280;6149;52.418;13.668;2024-01-11T08:54:02;102475.84;;;-4.17;100.00
12172;BME280;6149;52.418;13.668;2024-01-11T08:56:29;102467.44;;;-4.11;100.00
12172;BME280;6149;52.418;13.668;2024-01-11T08:58:56;102461.59;;;-4.06;100.00
12172;BME280;6149;52.418;13.668;2024-01-11T09:01:24;102455.59;;;-4.05;100.00
12172;BME280;6149;52.418;13.668;2024-01-11T09:03:51;102467.22;;;-3.93;100.00
12172;BME280;6149;52.418;13.668;2024-01-11T09:06:17;102453.59;;;-3.89;100.00
12172;BME280;6149;52.418;13.668;2024-01-11T09:08:44;102462.56;;;-3.80;100.00
12172;BME280;6149;52.418;13.668;2024-01-11T09:11:10;102430.06;;;-3.73;100.00
12172;BME280;6149;52.418;13.668;2024-01-11T09:13:37;102434.19;;;-3.78;100.00
12172;BME280;6149;52.418;13.668;2024-01-11T09:16:05;102449.16;;;-3.68;100.00
12172;BME280;6149;52.418;13.668;2024-01-11T09:18:34;102447.50;;;-3.66;100.00
12172;BME280;6149;52.418;13.668;2024-01-11T09:21:00;102442.81;;;-3.52;100.00
12172;BME280;6149;52.418;13.668;2024-01-11T09:23:29;102423.72;;;-3.56;100.00
12172;BME280;6149;52.418;13.668;2024-01-11T09:25:55;102427.34;;;-3.51;100.00
12172;BME280;6149;52.418;13.668;2024-01-11T09:28:22;102441.47;;;-3.41;100.00
12172;BME280;6149;52.418;13.668;2024-01-11T09:30:48;102451.16;;;-3.35;100.00
12172;BME280;6149;52.418;13.668;2024-01-11T09:33:15;102452.03;;;-3.35;100.00
12172;BME280;6149;52.418;13.668;2024-01-11T09:35:43;102442.59;;;-3.33;100.00
12172;BME280;6149;52.418;13.668;2024-01-11T09:38:09;102445.38;;;-3.27;100.00
12172;BME280;6149;52.418;13.668;2024-01-11T09:40:36;102461.09;;;-3.21;100.00
12172;BME280;6149;52.418;13.668;2024-01-11T09:43:04;102442.38;;;-3.14;100.00
12172;BME280;6149;52.418;13.668;2024-01-11T09:45:31;102452.47;;;-2.94;100.00
12172;BME280;6149;52.418;13.668;2024-01-11T09:47:58;102447.75;;;-3.08;100.00
12172;BME280;6149;52.418;13.668;2024-01-11T09:50:25;102454.63;;;-3.08;100.00
12172;BME280;6149;52.418;13.668;2024-01-11T09:52:53;102457.16;;;-3.10;100.00
12172;BME280;6149;52.418;13.668;2024-01-11T09:55:19;102456.50;;;-3.04;100.00
12172;BME280;6149;52.418;13.668;2024-01-11T09:57:47;102458.09;;;-3.08;100.00
12172;BME280;6149;52.418;13.668;2024-01-11T10:00:16;102453.13;;;-3.01;100.00
12172;BME280;6149;52.418;13.668;2024-01-11T10:02:45;102461.16;;;-2.92;100.00
12172;BME280;6149;52.418;13.668;2024-01-11T10:05:11;102458.56;;;-2.92;100.00
12172;BME280;6149;52.418;13.668;2024-01-11T10:07:39;102451.50;;;-2.98;100.00
12172;BME280;6149;52.418;13.668;2024-01-11T10:10:08;102454.41;;;-2.87;100.00
12172;BME280;6149;52.418;13.668;2024-01-11T10:12:35;102448.84;;;-2.73;100.00
12172;BME280;6149;52.418;13.668;2024-01-11T10:15:06;102430.63;;;-2.76;100.00
12172;BME280;6149;52.418;13.668;2024-01-11T10:17:35;102421.13;;;-2.77;100.00
12172;BME280;6149;52.418;13.668;2024-01-11T10:20:02;102422.00;;;-2.76;100.00
12172;BME280;6149;52.418;13.668;2024-01-11T10:22:29;102419.50;;;-2.73;100.00
12172;BME280;6149;52.418;13.668;2024-01-11T10:25:10;102429.13;;;-2.69;100.00
12172;BME280;6149;52.418;13.668;2024-01-11T10:27:38;102431.94;;;-2.61;100.00
12172;BME280;6149;52.418;13.668;2024-01-11T10:30:07;102433.31;;;-2.44;100.00
12172;BME280;6149;52.418;13.668;2024-01-11T10:32:34;102423.63;;;-2.50;100.00
12172;BME280;6149;52.418;13.668;2024-01-11T10:35:01;102416.59;;;-2.54;100.00
12172;BME280;6149;52.418;13.668;2024-01-11T10:37:30;102405.28;;;-2.57;100.00
12172;BME280;6149;52.418;13.668;2024-01-11T10:40:02;102412.22;;;-2.56;100.00
12172;BME280;6149;52.418;13.668;2024-01-11T10:42:36;102419.16;;;-2.55;100.00
12172;BME280;6149;52.418;13.668;2024-01-11T10:45:11;102422.63;;;-2.55;100.00
12172;BME280;6149;52.418;13.668;2024-01-11T10:47:47;102427.78;;;-2.55;100.00
12172;BME280;6149;52.418;13.668;2024-01-11T10:50:18;102424.50;;;-2.49;100.00
12172;BME280;6149;52.418;13.668;2024-01-11T10:53:00;102430.53;;;-2.50;100.00
12172;BME280;6149;52.418;13.668;2024-01-11T10:55:32;102422.81;;;-2.49;100.00
12172;BME280;6149;52.418;13.668;2024-01-11T10:58:01;102424.75;;;-2.42;100.00
12172;BME280;6149;52.418;13.668;2024-01-11T11:00:29;102418.97;;;-2.33;100.00
12172;BME280;6149;52.418;13.668;2024-01-11T11:02:58;102417.13;;;-2.37;100.00
12172;BME280;6149;52.418;13.668;2024-01-11T11:05:27;102419.09;;;-2.28;100.00
12172;BME280;6149;52.418;13.668;2024-01-11T11:07:55;102414.84;;;-2.26;100.00
12172;BME280;6149;52.418;13.668;2024-01-11T11:10:24;102412.19;;;-2.28;100.00
12172;BME280;6149;52.418;13.668;2024-01-11T11:12:51;102407.06;;;-2.26;100.00
12172;BME280;6149;52.418;13.668;2024-01-11T11:15:21;102401.88;;;-2.26;100.00
12172;BME280;6149;52.418;13.668;2024-01-11T11:17:50;102405.19;;;-2.32;100.00
12172;BME280;6149;52.418;13.668;2024-01-11T11:20:18;102412.28;;;-2.25;100.00
12172;BME280;6149;52.418;13.668;2024-01-11T11:22:48;102423.59;;;-2.21;100.00
12172;BME280;6149;52.418;13.668;2024-01-11T11:25:24;102432.97;;;-2.26;100.00
12172;BME280;6149;52.418;13.668;2024-01-11T11:27:51;102431.00;;;-2.35;100.00
12172;BME280;6149;52.418;13.668;2024-01-11T11:30:19;102417.06;;;-2.39;100.00
12172;BME280;6149;52.418;13.668;2024-01-11T11:32:47;102421.13;;;-2.47;100.00
12172;BME280;6149;52.418;13.668;2024-01-11T11:35:14;102434.03;;;-2.48;100.00
12172;BME280;6149;52.418;13.668;2024-01-11T11:37:40;102434.09;;;-2.47;100.00
12172;BME280;6149;52.418;13.668;2024-01-11T11:40:09;102440.84;;;-2.52;100.00
12172;BME280;6149;52.418;13.668;2024-01-11T11:42:36;102454.72;;;-2.50;100.00
12172;BME280;6149;52.418;13.668;2024-01-11T11:45:04;102447.72;;;-2.52;100.00
12172;BME280;6149;52.418;13.668;2024-01-11T11:47:33;102440.88;;;-2.50;100.00
12172;BME280;6149;52.418;13.668;2024-01-11T11:50:08;102432.56;;;-2.40;100.00
12172;BME280;6149;52.418;13.668;2024-01-11T11:52:37;102429.84;;;-2.45;100.00
12172;BME280;6149;52.418;13.668;2024-01-11T11:55:06;102433.16;;;-2.49;100.00
12172;BME280;6149;52.418;13.668;2024-01-11T11:57:35;102432.34;;;-2.48;100.00
12172;BME280;6149;52.418;13.668;2024-01-11T12:00:02;102428.16;;;-2.43;100.00
12172;BME280;6149;52.418;13.668;2024-01-11T12:02:32;102418.97;;;-2.33;100.00
12172;BME280;6149;52.418;13.668;2024-01-11T12:05:01;102424.75;;;-2.42;100.00
12172;BME280;6149;52.418;13.668;2024-01-11T12:07:30;102423.09;;;-2.40;100.00
12172;BME280;6149;52.418;13.668;2024-01-11T12:09:57;102407.44;;;-2.43;100.00
12172;BME280;6149;52.418;13.668;2024-01-11T12:12:24;102406.63;;;-2.42;100.00
12172;BME280;6149;52.418;13.668;2024-01-11T12:14:53;102407.50;;;-2.41;100.00
12172;BME280;6149;52.418;13.668;2024-01-11T12:17:19;102422.09;;;-2.43;100.00
12172;BME280;6149;52.418;13.668;2024-01-11T12:19:46;102405.66;;;-2.45;100.00
12172;BME280;6149;52.418;13.668;2024-01-11T12:22:12;102401.38;;;-2.43;100.00
12172;BME280;6149;52.418;13.668;2024-01-11T12:24:40;102414.63;;;-2.34;100.00
12172;BME280;6149;52.418;13.668;2024-01-11T12:27:07;102406.97;;;-2.29;100.00
12172;BME280;6149;52.418;13.668;2024-01-11T12:29:33;102414.66;;;-2.32;100.00
12172;BME280;6149;52.418;13.668;2024-01-11T12:32:00;102412.13;;;-2.31;100.00
12172;BME280;6149;52.418;13.668;2024-01-11T12:34:28;102409.56;;;-2.29;100.00
12172;BME280;6149;52.418;13.668;2024-01-11T12:36:55;102409.53;;;-2.31;100.00
12172;BME280;6149;52.418;13.668;2024-01-11T12:39:26;102407.94;;;-2.26;100.00